Time;durP1;ratioP1;P1;durP2;ratioP2;P2;SDS_P1;SDS_P2;PMS_P1;PMS_P2;Temp;Humidity;BMP_temperature;BMP_pressure;BME280_temperature;BME280_humidity;BME280_pressure;Samples;Min_cycle;Max_cycle;Signal;HPM_P1;HPM_P2
2024/02/26 00:01:56;;;;;;;28.73;17.50;;;;;;;6.06;86.91;99462.29;1742463;81;25854;-74
2024/02/26 00:04:22;;;;;;;31.20;17.17;;;;;;;6.03;86.48;99461.54;1751073;81;27307;-74
2024/02/26 00:06:51;;;;;;;31.95;18.45;;;;;;;5.97;87.29;99458.70;1751362;81;25823;-74
2024/02/26 00:09:17;;;;;;;37.48;18.60;;;;;;;5.95;87.24;99460.86;1752332;81;25747;-75
2024/02/26 00:11:43;;;;;;;32.93;19.27;;;;;;;5.93;88.38;99457.12;1752310;81;25769;-75
2024/02/26 00:14:09;;;;;;;33.13;19.15;;;;;;;5.92;88.41;99459.55;1752549;81;25677;-75
2024/02/26 00:16:41;;;;;;;34.35;19.55;;;;;;;5.90;88.48;99457.72;1753238;81;27313;-75
2024/02/26 00:19:07;;;;;;;32.50;18.57;;;;;;;5.90;88.99;99453.69;1753153;81;25513;-73
2024/02/26 00:21:34;;;;;;;34.13;19.55;;;;;;;5.87;87.84;99457.52;1753237;81;25497;-74
2024/02/26 00:24:00;;;;;;;33.50;17.92;;;;;;;5.82;87.56;99455.72;1753145;81;26341;-72
2024/02/26 00:26:26;;;;;;;33.00;18.20;;;;;;;5.77;87.74;99457.97;1753209;81;25648;-74
2024/02/26 00:28:53;;;;;;;79.53;47.93;;;;;;;5.78;88.85;99450.70;1727932;81;27197;-66
2024/02/26 00:31:20;;;;;;;64.10;37.20;;;;;;;5.78;88.75;99449.36;1752854;81;25511;-67
2024/02/26 00:33:46;;;;;;;33.53;20.08;;;;;;;5.81;89.28;99447.44;1752963;81;25639;-71
2024/02/26 00:36:13;;;;;;;29.72;18.42;;;;;;;5.83;89.78;99447.92;1753150;81;26456;-69
2024/02/26 00:38:40;;;;;;;32.15;18.45;;;;;;;5.84;89.53;99444.16;1753200;81;25620;-71
2024/02/26 00:41:07;;;;;;;30.32;17.48;;;;;;;5.84;89.43;99445.50;1808213;79;27325;-70
2024/02/26 00:43:33;;;;;;;33.58;17.98;;;;;;;5.84;89.51;99444.16;1813038;79;25707;-70
2024/02/26 00:46:00;;;;;;;35.05;19.67;;;;;;;5.83;90.13;99443.12;1813471;79;25561;-70
2024/02/26 00:48:27;;;;;;;32.40;19.82;;;;;;;5.84;89.72;99448.19;1814453;79;25614;-69
2024/02/26 00:50:54;;;;;;;35.33;19.65;;;;;;;5.79;89.32;99438.89;1814570;79;25444;-70
2024/02/26 00:53:20;;;;;;;32.25;17.40;;;;;;;5.75;88.49;99437.87;1814507;79;27696;-69
2024/02/26 00:55:46;;;;;;;31.73;18.05;;;;;;;5.69;89.61;99434.50;1814478;79;25605;-69
2024/02/26 00:58:13;;;;;;;33.18;17.37;;;;;;;5.71;90.57;99432.31;1814548;78;25460;-69
2024/02/26 01:00:39;;;;;;;33.50;18.65;;;;;;;5.72;91.24;99423.70;1814426;79;25547;-70
2024/02/26 01:03:05;;;;;;;34.33;19.73;;;;;;;5.72;91.00;99426.39;1814012;79;25525;-70
2024/02/26 01:05:33;;;;;;;35.13;19.87;;;;;;;5.69;90.21;99426.45;1814003;79;28036;-70
2024/02/26 01:08:00;;;;;;;36.35;19.92;;;;;;;5.65;89.55;99425.44;1813906;79;25535;-70
2024/02/26 01:10:26;;;;;;;32.88;20.17;;;;;;;5.60;89.78;99426.35;1813990;79;25613;-69
2024/02/26 01:12:52;;;;;;;37.33;20.45;;;;;;;5.53;89.41;99420.56;1813891;79;25639;-70
2024/02/26 01:15:23;;;;;;;33.30;20.43;;;;;;;5.47;88.76;99430.36;1813968;79;25537;-70
2024/02/26 01:17:48;;;;;;;30.95;19.10;;;;;;;5.38;88.28;99423.52;1813718;78;27746;-69
2024/02/26 01:20:15;;;;;;;34.35;17.85;;;;;;;5.29;87.81;99430.11;1813895;78;25675;-70
2024/02/26 01:22:44;;;;;;;28.32;16.30;;;;;;;5.24;89.71;99427.52;1813932;79;25426;-69
2024/02/26 01:25:13;;;;;;;32.20;18.62;;;;;;;5.23;90.15;99428.06;1814073;79;25600;-69
2024/02/26 01:27:43;;;;;;;33.83;18.77;;;;;;;5.18;89.88;99423.34;1728135;82;25684;-71
2024/02/26 01:30:12;;;;;;;35.10;17.90;;;;;;;5.15;90.51;99423.38;1708056;84;27347;-72
2024/02/26 01:32:38;;;;;;;33.80;18.52;;;;;;;5.10;90.57;99419.99;1707918;84;25613;-71
2024/02/26 01:35:09;;;;;;;33.05;18.90;;;;;;;5.05;89.96;99420.31;1708018;84;25788;-70
2024/02/26 01:37:34;;;;;;;;;;;;;;;4.98;89.67;99421.23;1710222;83;25631;-70
2024/02/26 01:40:03;;;;;;;32.60;19.07;;;;;;;4.90;89.09;99420.55;1728407;83;25547;-63
2024/02/26 01:42:29;;;;;;;34.23;18.23;;;;;;;4.80;88.28;99425.55;1707735;81;27017;-63
2024/02/26 01:44:57;;;;;;;36.00;17.77;;;;;;;4.73;88.55;99429.12;1707910;84;25718;-64
2024/02/26 01:47:27;;;;;;;31.05;17.85;;;;;;;4.71;90.76;99429.17;1708006;84;25534;-64
2024/02/26 01:49:55;;;;;;;30.08;18.57;;;;;;;4.73;91.66;99426.44;1708183;84;32445;-63
2024/02/26 01:52:22;;;;;;;34.88;20.92;;;;;;;4.74;92.71;99425.36;1707971;84;25554;-63
2024/02/26 01:54:51;;;;;;;31.12;18.10;;;;;;;4.76;92.90;99419.16;1684313;84;27300;-63
2024/02/26 01:57:18;;;;;;;35.17;19.73;;;;;;;4.76;92.93;99423.19;1708045;84;25539;-63
2024/02/26 01:59:45;;;;;;;33.85;19.32;;;;;;;4.74;92.54;99425.92;1788463;80;25649;-63
2024/02/26 02:02:13;;;;;;;36.88;19.80;;;;;;;4.70;91.95;99429.72;1800763;78;25648;-64
2024/02/26 02:04:40;;;;;;;35.92;19.75;;;;;;;4.65;91.48;99433.81;1789904;80;25622;-64
2024/02/26 02:07:07;;;;;;;34.65;17.95;;;;;;;4.62;91.68;99437.06;1789890;80;27155;-64
2024/02/26 02:09:36;;;;;;;35.38;19.60;;;;;;;4.60;91.94;99431.21;1789809;80;26002;-64
2024/02/26 02:12:06;;;;;;;35.85;19.50;;;;;;;4.56;91.55;99432.31;1789906;80;25388;-64
2024/02/26 02:14:33;;;;;;;38.75;20.97;;;;;;;4.51;90.68;99435.61;1789959;80;25598;-63
2024/02/26 02:17:00;;;;;;;33.92;18.52;;;;;;;4.43;90.85;99429.83;1789907;80;25571;-63
2024/02/26 02:19:26;;;;;;;35.15;19.82;;;;;;;4.41;92.12;99433.86;1789869;80;27909;-63
2024/02/26 02:21:53;;;;;;;31.87;19.10;;;;;;;4.41;92.97;99432.52;1789874;80;25618;-63
2024/02/26 02:24:20;;;;;;;35.23;21.50;;;;;;;4.41;93.27;99423.15;1789970;80;25559;-64
2024/02/26 02:26:47;;;;;;;36.77;20.88;;;;;;;4.42;94.16;99426.09;1789813;80;25767;-64
2024/02/26 02:29:15;;;;;;;35.73;20.72;;;;;;;4.43;94.40;99431.16;1789883;80;25462;-63
2024/02/26 02:31:43;;;;;;;35.23;21.55;;;;;;;4.44;94.20;99430.61;1789859;80;27667;-63
2024/02/26 02:34:11;;;;;;;39.10;21.60;;;;;;;4.42;94.97;99431.45;1789748;80;25425;-64
2024/02/26 02:36:54;;;;;;;33.97;21.20;;;;;;;4.43;94.54;99433.05;1790100;80;25564;-65
2024/02/26 02:39:22;;;;;;;38.45;21.97;;;;;;;4.40;94.03;99440.31;1789535;80;25612;-64
2024/02/26 02:41:49;;;;;;;34.73;21.02;;;;;;;4.35;93.94;99441.17;1789882;80;25456;-65
2024/02/26 02:44:15;;;;;;;36.80;20.20;;;;;;;4.36;94.53;99443.30;1789835;80;27232;-64
2024/02/26 02:46:41;;;;;;;38.25;21.25;;;;;;;4.36;95.02;99443.30;1789770;80;25393;-64
2024/02/26 02:49:11;;;;;;;36.03;19.42;;;;;;;4.35;95.25;99438.50;1789867;80;25560;-64
2024/02/26 02:51:38;;;;;;;37.60;20.30;;;;;;;4.34;95.52;99444.92;1789971;80;25626;-64
2024/02/26 02:54:05;;;;;;;33.98;21.12;;;;;;;4.36;95.61;99446.80;1789836;80;25640;-64
2024/02/26 02:56:33;;;;;;;34.85;20.70;;;;;;;4.33;95.22;99444.69;1789867;80;27672;-65
2024/02/26 02:58:59;;;;;;;38.58;21.48;;;;;;;4.33;95.74;99453.27;1789768;80;25389;-64
2024/02/26 03:01:25;;;;;;;36.45;21.25;;;;;;;4.34;95.68;99454.30;1789775;78;25561;-63
2024/02/26 03:03:52;;;;;;;40.95;21.77;;;;;;;4.33;95.80;99455.95;1789855;80;26158;-63
2024/02/26 03:06:18;;;;;;;34.78;19.67;;;;;;;4.31;95.24;99464.27;1789879;80;25455;-64
2024/02/26 03:08:45;;;;;;;34.40;20.37;;;;;;;4.30;95.45;99467.46;1789837;80;28135;-65
2024/02/26 03:11:15;;;;;;;38.65;21.73;;;;;;;4.30;95.49;99465.33;1789767;80;26009;-64
2024/02/26 03:13:43;;;;;;;38.85;20.97;;;;;;;4.28;95.39;99473.66;1789797;80;25415;-63
2024/02/26 03:16:10;;;;;;;36.60;20.23;;;;;;;4.28;95.61;99467.51;1789825;80;26174;-63
2024/02/26 03:18:40;;;;;;;36.53;19.77;;;;;;;4.27;95.62;99469.40;1789867;80;25617;-64
2024/02/26 03:21:08;;;;;;;36.98;20.75;;;;;;;4.26;95.58;99469.68;1789810;80;27250;-64
2024/02/26 03:23:36;;;;;;;37.05;20.57;;;;;;;4.24;95.71;99474.50;1789754;80;26044;-63
2024/02/26 03:26:04;;;;;;;38.20;19.45;;;;;;;4.22;96.22;99476.16;1789924;80;25554;-63
2024/02/26 03:28:34;;;;;;;32.70;18.73;;;;;;;4.22;96.51;99473.48;1790047;80;26271;-63
2024/02/26 03:31:03;;;;;;;35.45;19.80;;;;;;;4.23;96.67;99475.60;1789857;80;25397;-63
2024/02/26 03:33:29;;;;;;;35.73;19.60;;;;;;;4.19;96.29;99470.03;1789791;80;27316;-64
2024/02/26 03:35:56;;;;;;;37.00;19.05;;;;;;;4.17;96.37;99472.20;1789744;80;25612;-64
2024/02/26 03:38:23;;;;;;;40.08;20.32;;;;;;;4.19;97.50;99472.70;1789814;80;25417;-64
2024/02/26 03:40:49;;;;;;;34.10;19.65;;;;;;;4.19;97.11;99475.37;1789811;80;25544;-64
2024/02/26 03:43:17;;;;;;;36.33;20.08;;;;;;;4.18;96.92;99474.33;1789878;80;25444;-65
2024/02/26 03:45:43;;;;;;;36.60;20.10;;;;;;;4.18;97.56;99467.64;1789817;80;27835;-65
2024/02/26 03:48:09;;;;;;;39.18;20.62;;;;;;;4.17;97.76;99469.52;1789786;80;25910;-64
2024/02/26 03:50:36;;;;;;;36.75;21.05;;;;;;;4.18;97.37;99472.98;1789885;80;25618;-65
2024/02/26 03:53:03;;;;;;;36.88;20.32;;;;;;;4.17;97.64;99471.38;1789929;80;25618;-64
2024/02/26 03:55:29;;;;;;;35.90;20.92;;;;;;;4.19;98.30;99470.55;1790037;80;25522;-64
2024/02/26 03:57:56;;;;;;;37.20;20.23;;;;;;;4.19;98.10;99466.02;1789978;80;27320;-64
2024/02/26 04:00:25;;;;;;;35.65;19.85;;;;;;;4.19;97.90;99459.32;1789904;80;25622;-64
2024/02/26 04:02:52;;;;;;;36.70;19.87;;;;;;;4.20;97.90;99463.57;1802254;79;25602;-64
2024/02/26 04:05:18;;;;;;;34.15;19.23;;;;;;;4.18;97.38;99468.42;1810789;79;26287;-64
2024/02/26 04:07:45;;;;;;;40.05;21.42;;;;;;;4.16;96.93;99471.14;1810892;79;25647;-64
2024/02/26 04:10:14;;;;;;;35.70;21.42;;;;;;;4.10;96.45;99464.52;1810852;79;27206;-64
2024/02/26 04:12:43;;;;;;;35.70;20.72;;;;;;;4.06;96.03;99466.15;1810901;79;25547;-64
2024/02/26 04:15:11;;;;;;;32.38;18.27;;;;;;;4.03;96.04;99461.91;1811031;79;25605;-65
2024/02/26 04:17:38;;;;;;;32.60;19.17;;;;;;;3.99;96.27;99468.37;1810821;79;25627;-64
2024/02/26 04:20:07;;;;;;;37.28;20.02;;;;;;;3.99;97.31;99465.70;1810873;79;25478;-64
2024/02/26 04:22:34;;;;;;;36.05;20.45;;;;;;;4.01;97.34;99467.55;1811066;79;27364;-64
2024/02/26 04:25:03;;;;;;;37.73;20.45;;;;;;;3.97;96.90;99467.87;1810912;79;25586;-63
2024/02/26 04:27:30;;;;;;;33.13;18.55;;;;;;;3.92;95.98;99470.05;1810727;79;25581;-64
2024/02/26 04:29:56;;;;;;;33.70;18.27;;;;;;;3.90;96.78;99472.22;1810949;79;26233;-64
2024/02/26 04:32:23;;;;;;;34.23;20.17;;;;;;;3.91;97.79;99464.44;1811182;79;25578;-64
2024/02/26 04:34:54;;;;;;;36.98;19.70;;;;;;;3.97;99.24;99461.70;1810936;79;27944;-64
2024/02/26 04:37:22;;;;;;;40.67;20.27;;;;;;;4.00;99.50;99461.95;1810883;79;25457;-63
2024/02/26 04:39:49;;;;;;;36.03;20.68;;;;;;;4.01;99.02;99467.55;1810787;79;25581;-64
2024/02/26 04:42:15;;;;;;;36.10;21.27;;;;;;;4.00;98.53;99458.47;1810783;79;26178;-65
2024/02/26 04:44:41;;;;;;;38.30;20.60;;;;;;;3.99;98.58;99457.67;1810975;79;25444;-65
2024/02/26 04:47:08;;;;;;;41.08;21.60;;;;;;;4.01;99.41;99458.18;1811047;79;27310;-65
2024/02/26 04:49:34;;;;;;;42.30;21.90;;;;;;;4.01;98.94;99463.53;1810991;79;25773;-64
2024/02/26 04:52:06;;;;;;;42.00;21.52;;;;;;;4.02;99.04;99460.30;1810875;79;25416;-64
2024/02/26 04:54:33;;;;;;;51.42;21.35;;;;;;;4.03;99.92;99465.38;1811056;79;26179;-64
2024/02/26 04:57:00;;;;;;;40.67;21.10;;;;;;;4.02;99.18;99467.81;1810891;79;25482;-63
2024/02/26 04:59:27;;;;;;;35.28;21.20;;;;;;;4.01;99.48;99465.42;1810805;79;27381;-64
2024/02/26 05:01:53;;;;;;;37.08;21.75;;;;;;;3.99;98.80;99473.73;1810769;78;25713;-63
2024/02/26 05:04:20;;;;;;;34.88;20.40;;;;;;;3.99;99.13;99470.27;1811609;79;25141;-64
2024/02/26 05:06:47;;;;;;;37.20;19.15;;;;;;;3.97;98.93;99467.87;1811615;79;25508;-64
2024/02/26 05:09:14;;;;;;;36.05;19.42;;;;;;;3.97;99.57;99467.87;1811567;79;25534;-64
2024/02/26 05:11:42;;;;;;;38.83;20.37;;;;;;;3.99;99.87;99469.72;1811436;79;27910;-64
2024/02/26 05:14:08;;;;;;;42.20;21.90;;;;;;;4.00;100.00;99463.30;1811314;79;25614;-64
2024/02/26 05:16:36;;;;;;;39.10;21.62;;;;;;;4.01;100.00;99470.77;1811556;79;25388;-64
2024/02/26 05:19:03;;;;;;;35.30;22.37;;;;;;;4.02;100.00;99469.16;1811408;79;25648;-64
2024/02/26 05:21:32;;;;;;;37.55;21.57;;;;;;;4.03;100.00;99476.08;1811532;79;25562;-64
2024/02/26 05:23:58;;;;;;;41.40;21.75;;;;;;;4.05;100.00;99479.81;1811107;79;27325;-64
2024/02/26 05:26:24;;;;;;;40.15;20.80;;;;;;;4.06;100.00;99474.73;1784218;79;25995;-64
2024/02/26 05:28:51;;;;;;;40.90;22.13;;;;;;;4.06;100.00;99475.52;1811384;79;25366;-64
2024/02/26 05:33:45;;;;;;;36.68;20.72;;;;;;;4.16;100.00;99475.95;1925182;74;34703;-64
2024/02/26 05:36:25;;;;;;;40.50;22.10;;;;;;;4.10;100.00;99481.91;1786045;80;25148;-64
2024/02/26 05:38:53;;;;;;;38.63;22.25;;;;;;;4.11;100.00;99482.70;1787742;80;27564;-64
2024/02/26 05:41:26;;;;;;;38.65;20.72;;;;;;;4.13;100.00;99485.88;1790683;80;25511;-64
2024/02/26 05:43:50;;;;;;;;;;;;;;;4.13;100.00;99489.89;1799400;79;25572;-64
2024/02/26 05:46:19;;;;;;;34.80;20.45;;;;;;;4.12;100.00;99486.98;1799226;79;25464;-65
2024/02/26 05:48:53;;;;;;;41.53;22.60;;;;;;;4.15;100.00;99496.30;1799451;79;25482;-65
2024/02/26 05:51:20;;;;;;;38.25;20.30;;;;;;;4.17;100.00;99497.63;1799146;79;28216;-64
2024/02/26 05:53:53;;;;;;;42.73;22.65;;;;;;;4.18;100.00;99495.19;1799001;79;25460;-66
2024/02/26 05:56:15;;;;;;;37.67;22.75;;;;;;;4.21;100.00;99492.50;1817705;78;25523;-65
2024/02/26 05:58:41;;;;;;;39.75;22.87;;;;;;;4.23;100.00;99502.38;1821398;78;25614;-65
2024/02/26 06:01:08;;;;;;;41.33;21.73;;;;;;;4.26;100.00;99501.81;1821381;78;25369;-65
2024/02/26 06:03:34;;;;;;;39.80;21.48;;;;;;;4.30;100.00;99502.27;1821384;78;27334;-65
2024/02/26 06:08:47;;;;;;;37.25;20.97;;;;;;;4.51;100.00;99510.59;1905672;74;34693;-66
2024/02/26 06:11:14;;;;;;;35.58;20.60;;;;;;;4.49;100.00;99510.36;1860088;77;25397;-66
2024/02/26 06:13:42;;;;;;;40.48;21.97;;;;;;;4.54;100.00;99515.39;1859952;77;27507;-66
2024/02/26 06:16:08;;;;;;;40.05;22.67;;;;;;;4.59;100.00;99510.75;1859998;76;25532;-67
2024/02/26 06:20:13;;;;;;;41.15;22.75;;;;;;;4.77;100.00;99512.41;1905569;74;35034;-67
2024/02/26 06:22:42;;;;;;;38.95;22.48;;;;;;;4.76;100.00;99512.94;1860205;76;25359;-67
2024/02/26 06:25:09;;;;;;;43.73;25.02;;;;;;;4.79;100.00;99513.70;1860076;76;27371;-67
2024/02/26 06:27:55;;;;;;;40.05;22.15;;;;;;;4.92;100.00;99513.54;1905685;74;34657;-67
2024/02/26 06:30:22;;;;;;;41.90;22.25;;;;;;;4.91;100.00;99511.15;1860216;77;25340;-66
2024/02/26 06:32:48;;;;;;;39.20;22.45;;;;;;;4.97;100.00;99518.83;1860172;77;27771;-67
2024/02/26 06:35:16;;;;;;;41.70;23.87;;;;;;;5.04;100.00;99513.89;1860142;76;25580;-67
2024/02/26 06:37:42;;;;;;;37.85;23.07;;;;;;;5.11;100.00;99515.39;1858709;77;25445;-68
2024/02/26 06:40:11;;;;;;;42.98;23.50;;;;;;;5.16;100.00;99509.42;1859755;76;25426;-68
2024/02/26 06:42:38;;;;;;;37.25;22.15;;;;;;;5.22;100.00;99518.18;1860182;76;25556;-67
2024/02/26 06:45:08;;;;;;;46.75;23.50;;;;;;;5.27;100.00;99515.97;1860059;76;28042;-67
2024/02/26 06:47:34;;;;;;;38.85;23.47;;;;;;;5.32;100.00;99522.05;1860112;76;30733;-67
2024/02/26 06:50:00;;;;;;;40.92;23.12;;;;;;;5.39;100.00;99516.30;1860086;77;25511;-67
2024/02/26 06:52:30;;;;;;;39.42;22.10;;;;;;;5.50;100.00;99520.42;1860045;77;25453;-67
2024/02/26 06:54:56;;;;;;;40.50;23.03;;;;;;;5.59;100.00;99520.55;1860286;76;25536;-67
2024/02/26 06:57:23;;;;;;;37.73;22.52;;;;;;;5.70;100.00;99524.62;1860000;76;27822;-68
2024/02/26 06:59:53;;;;;;;40.63;23.70;;;;;;;5.85;100.00;99524.91;1859922;77;25511;-68
2024/02/26 07:02:20;;;;;;;40.45;22.32;;;;;;;5.97;100.00;99527.93;1860170;77;25196;-68
2024/02/26 07:04:51;;;;;;;41.63;23.90;;;;;;;6.14;100.00;99527.35;1860070;77;25486;-67
2024/02/26 07:07:18;;;;;;;41.80;23.77;;;;;;;6.33;100.00;99525.12;1859449;76;25460;-67
2024/02/26 07:09:45;;;;;;;46.55;27.98;;;;;;;6.63;100.00;99536.36;1859939;76;28451;-67
2024/02/26 07:12:13;;;;;;;50.17;28.70;;;;;;;6.79;100.00;99535.47;1860078;77;25522;-68
2024/02/26 07:14:43;;;;;;;46.80;26.02;;;;;;;6.95;100.00;99533.23;1860283;76;25427;-66
2024/02/26 07:17:09;;;;;;;;;;;;;;;7.09;100.00;99534.80;1862704;76;25724;-67
2024/02/26 07:19:36;;;;;;;46.18;26.52;;;;;;;7.31;100.00;99538.61;1859997;76;25597;-67
2024/02/26 07:22:02;;;;;;;54.98;29.55;;;;;;;7.57;100.00;99538.78;1860012;76;28507;-67
2024/02/26 07:24:29;;;;;;;51.08;28.70;;;;;;;7.94;100.00;99536.78;1859864;77;25480;-67
2024/02/26 07:26:55;;;;;;;56.25;31.10;;;;;;;8.38;100.00;99538.31;1862704;76;25401;-67
2024/02/26 07:29:21;;;;;;;51.23;28.38;;;;;;;8.78;100.00;99540.95;1866348;76;25859;-68
2024/02/26 07:31:48;;;;;;;41.58;25.30;;;;;;;9.15;100.00;99549.56;1866300;76;25508;-66
2024/02/26 07:34:15;;;;;;;40.70;24.00;;;;;;;9.33;100.00;99546.29;1866275;76;28413;-67
2024/02/26 07:36:41;;;;;;;38.00;23.50;;;;;;;9.62;100.00;99546.19;1849466;76;26286;-67
2024/02/26 07:39:07;;;;;;;34.60;21.82;;;;;;;9.85;100.00;99548.91;1865619;76;25521;-66
2024/02/26 07:41:33;;;;;;;32.98;20.45;;;;;;;10.17;100.00;99555.42;1865585;76;25550;-66
2024/02/26 07:44:01;;;;;;;29.72;19.35;;;;;;;10.40;99.91;99550.58;1865654;76;25399;-66
2024/02/26 07:48:37;;;;;;;32.70;19.77;;;;;;;11.24;100.00;99557.45;1904269;74;25826;-67
2024/02/26 07:51:06;;;;;;;28.98;18.80;;;;;;;11.54;98.65;99564.10;1859447;76;25465;-67
2024/02/26 07:55:33;;;;;;;26.97;17.75;;;;;;;12.11;93.03;99562.60;1925256;74;25421;-66
2024/02/26 08:00:22;;;;;;;22.62;16.50;;;;;;;12.73;90.63;99568.03;1925179;74;25492;-66
2024/02/26 08:02:48;;;;;;;23.57;16.07;;;;;;;13.03;91.81;99565.27;1894983;75;25358;-67
2024/02/26 08:05:15;;;;;;;26.50;17.48;;;;;;;13.23;88.13;99568.95;1894957;75;27893;-66
2024/02/26 08:07:42;;;;;;;24.90;17.23;;;;;;;13.54;90.64;99565.38;1894825;75;25490;-67
2024/02/26 08:10:11;;;;;;;25.60;17.40;;;;;;;13.89;87.48;99570.95;1894890;75;25509;-67
2024/02/26 08:12:37;;;;;;;26.15;17.82;;;;;;;14.14;87.97;99569.45;1895124;75;25365;-67
2024/02/26 08:21:05;;;;;;;20.92;15.48;;;;;;;15.02;80.24;99584.75;1905590;74;25429;-68
2024/02/26 08:23:32;;;;;;;19.12;14.58;;;;;;;15.08;81.61;99577.86;1860095;77;25352;-68
2024/02/26 08:25:59;;;;;;;16.80;13.68;;;;;;;15.65;83.34;99583.11;1860094;76;27870;-67
2024/02/26 08:28:25;;;;;;;19.10;13.45;;;;;;;16.00;78.90;99586.30;1859826;77;25572;-68
2024/02/26 08:30:51;;;;;;;19.07;14.05;;;;;;;16.01;76.79;99589.25;1860061;77;25599;-67
2024/02/26 08:33:17;;;;;;;18.48;13.25;;;;;;;16.03;76.13;99581.48;1859907;77;25571;-65
2024/02/26 08:35:45;;;;;;;16.62;13.20;;;;;;;15.97;74.19;99582.95;1860034;77;25585;-66
2024/02/26 08:38:13;;;;;;;21.75;13.58;;;;;;;15.97;74.55;99595.23;1860091;77;28252;-67
2024/02/26 08:40:41;;;;;;;19.50;13.45;;;;;;;15.98;75.33;99579.64;1855102;77;25697;-67
2024/02/26 08:43:10;;;;;;;17.27;13.83;;;;;;;16.35;75.29;99583.98;1859324;77;25763;-66
2024/02/26 08:45:58;;;;;;;17.90;13.20;;;;;;;16.53;72.90;99588.38;1859270;77;25825;-66
2024/02/26 08:50:15;;;;;;;18.60;12.78;;;;;;;16.16;71.13;99589.52;1924857;74;25413;-66
2024/02/26 08:52:48;;;;;;;18.92;12.73;;;;;;;15.87;71.63;99582.97;1895515;75;25151;-66
2024/02/26 08:55:34;;;;;;;16.77;13.32;;;;;;;15.64;70.49;99592.43;1890391;75;28117;-66
2024/02/26 08:58:00;;;;;;;19.02;12.68;;;;;;;15.27;71.50;99591.52;1766414;81;25593;-65
2024/02/26 09:00:26;;;;;;;16.82;12.18;;;;;;;15.17;72.46;99589.91;1766944;81;25586;-70
2024/02/26 09:02:52;;;;;;;15.85;12.93;;;;;;;14.98;70.89;99592.04;1766692;79;25630;-71
2024/02/26 09:05:19;;;;;;;17.55;12.68;;;;;;;14.50;71.17;99588.78;1766657;79;25580;-72
2024/02/26 09:07:46;;;;;;;15.78;12.13;;;;;;;14.14;71.52;99594.71;1766747;79;27436;-73
2024/02/26 09:10:13;;;;;;;15.03;12.80;;;;;;;13.77;72.02;99598.20;1766626;79;25380;-73
2024/02/26 09:12:40;;;;;;;16.42;12.90;;;;;;;13.44;72.91;99608.76;1766731;81;25529;-74
2024/02/26 09:15:08;;;;;;;18.00;13.50;;;;;;;13.15;73.57;99609.83;1766666;81;25538;-74
2024/02/26 09:17:34;;;;;;;18.70;13.55;;;;;;;12.84;74.10;99600.38;1766966;79;25538;-67
2024/02/26 09:20:03;;;;;;;15.63;12.90;;;;;;;12.61;75.00;99611.67;1766709;79;27463;-74
2024/02/26 09:22:30;;;;;;;18.45;14.25;;;;;;;12.37;76.04;99609.73;1766714;81;25950;-74
2024/02/26 09:24:56;;;;;;;17.77;13.80;;;;;;;12.19;76.91;99606.45;1766673;79;25467;-73
2024/02/26 09:27:23;;;;;;;19.42;14.75;;;;;;;12.04;77.39;99607.09;1766624;79;25432;-72
2024/02/26 09:29:50;;;;;;;17.65;14.55;;;;;;;11.85;77.95;99615.14;1766674;79;25384;-66
2024/02/26 09:32:17;;;;;;;16.95;14.25;;;;;;;11.76;78.70;99613.87;1766679;79;28128;-65
2024/02/26 09:34:43;;;;;;;19.05;15.45;;;;;;;11.75;79.63;99616.34;1766772;81;25501;-66
2024/02/26 09:37:09;;;;;;;20.00;14.23;;;;;;;11.78;80.08;99610.80;1766743;79;25609;-67
2024/02/26 09:39:36;;;;;;;18.52;14.13;;;;;;;11.78;80.34;99610.80;1766623;79;25607;-67
2024/02/26 09:42:09;;;;;;;19.77;14.33;;;;;;;11.77;80.59;99615.44;1766664;79;25412;-67
2024/02/26 09:44:38;;;;;;;17.95;14.13;;;;;;;11.74;80.32;99615.31;1766353;81;27889;-68
2024/02/26 09:47:11;;;;;;;17.20;13.78;;;;;;;11.68;80.42;99613.37;1766655;79;25721;-66
2024/02/26 09:49:39;;;;;;;18.45;14.70;;;;;;;11.63;80.63;99609.52;1766665;81;25590;-67
2024/02/26 09:52:06;;;;;;;20.27;13.43;;;;;;;11.58;80.94;99613.80;1766593;81;25552;-67
2024/02/26 09:54:34;;;;;;;16.48;13.62;;;;;;;11.53;80.96;99619.41;1766655;81;25425;-67
2024/02/26 09:57:06;;;;;;;16.93;13.65;;;;;;;11.52;81.37;99619.17;1766536;81;27463;-66
2024/02/26 09:59:43;;;;;;;16.90;12.88;;;;;;;11.48;81.56;99623.11;1766468;81;25575;-67
2024/02/26 10:02:14;;;;;;;15.98;12.73;;;;;;;11.47;81.59;99626.14;1766089;81;25390;-68
2024/02/26 10:04:43;;;;;;;16.27;12.25;;;;;;;11.39;81.61;99633.19;1766180;79;25817;-68
2024/02/26 10:07:13;;;;;;;16.70;13.22;;;;;;;11.30;81.69;99632.48;1766151;79;25619;-66
2024/02/26 10:09:40;;;;;;;16.67;12.47;;;;;;;11.23;81.93;99637.63;1765520;81;27810;-67
2024/02/26 10:12:16;;;;;;;16.67;13.25;;;;;;;11.12;82.02;99635.87;1734269;81;25820;-67
2024/02/26 10:14:39;;;;;;;15.18;11.55;;;;;;;11.03;82.39;99630.50;1765245;81;25476;-68
2024/02/26 10:17:10;;;;;;;14.85;12.15;;;;;;;11.01;82.78;99631.39;1766127;79;25452;-68
2024/02/26 10:19:37;;;;;;;17.23;13.15;;;;;;;11.01;82.93;99633.53;1766257;81;25598;-68
2024/02/26 10:22:04;;;;;;;83.50;54.75;;;;;;;10.97;82.99;99630.47;1766206;81;27471;-66
2024/02/26 10:24:31;;;;;;;21.07;15.13;;;;;;;10.97;83.63;99633.96;1766053;81;25408;-69
2024/02/26 10:26:58;;;;;;;16.48;13.20;;;;;;;10.97;83.53;99628.55;1766114;81;25445;-68
2024/02/26 10:29:26;;;;;;;15.10;11.93;;;;;;;11.01;84.11;99634.09;1766028;81;25626;-67
2024/02/26 10:31:53;;;;;;;17.07;12.73;;;;;;;11.08;84.32;99624.89;1766109;79;25631;-67
2024/02/26 10:34:20;;;;;;;15.93;11.65;;;;;;;11.20;85.12;99629.59;1766063;81;27461;-68
2024/02/26 10:36:47;;;;;;;14.70;11.88;;;;;;;11.36;85.05;99626.54;1766008;79;25683;-72
2024/02/26 10:39:14;;;;;;;17.00;12.65;;;;;;;11.53;85.74;99626.18;1766120;79;25464;-70
2024/02/26 10:41:44;;;;;;;16.82;12.30;;;;;;;11.67;85.07;99622.63;1766024;79;25614;-70
2024/02/26 10:44:12;;;;;;;15.30;11.85;;;;;;;11.85;84.96;99627.33;1766118;81;25546;-71
2024/02/26 10:46:41;;;;;;;15.40;12.07;;;;;;;12.14;83.92;99616.94;1766060;81;27468;-71
2024/02/26 10:49:19;;;;;;;14.47;11.75;;;;;;;12.58;86.78;99625.13;1765950;79;25587;-73
2024/02/26 10:51:46;;;;;;;14.00;10.48;;;;;;;13.32;85.49;99624.52;1765566;81;25595;-70
2024/02/26 10:54:16;;;;;;;12.47;10.58;;;;;;;13.57;82.04;99623.08;1734139;81;25464;-70
2024/02/26 10:56:43;;;;;;;14.28;10.20;;;;;;;13.62;81.01;99619.56;1765998;79;25705;-71
2024/02/26 10:59:10;;;;;;;11.33;9.25;;;;;;;13.92;81.53;99619.77;1766047;81;27622;-71
2024/02/26 11:01:38;;;;;;;11.75;9.83;;;;;;;14.34;80.37;99613.86;1765978;79;25457;-71
2024/02/26 11:04:09;;;;;;;13.05;9.48;;;;;;;15.03;79.71;99614.33;1766202;79;25565;-70
2024/02/26 11:06:36;;;;;;;10.80;9.15;;;;;;;15.57;78.30;99611.95;1766003;79;25526;-70
2024/02/26 11:09:03;;;;;;;12.65;9.58;;;;;;;15.68;75.62;99614.30;1766056;81;25587;-71
2024/02/26 11:11:34;;;;;;;11.22;8.78;;;;;;;15.70;75.66;99609.30;1766021;79;27239;-71
2024/02/26 11:14:03;;;;;;;10.60;7.35;;;;;;;16.17;78.04;99604.72;1766019;81;25845;-70
2024/02/26 11:16:30;;;;;;;8.93;7.67;;;;;;;17.62;75.33;99604.28;1766146;81;25368;-70
2024/02/26 11:18:58;;;;;;;8.80;6.92;;;;;;;17.79;70.06;99598.81;1765986;79;25602;-65
2024/02/26 11:21:38;;;;;;;19.15;14.78;;;;;;;18.17;69.62;99598.25;1766053;81;25534;-65
2024/02/26 11:23:57;;;;;;;8.48;7.53;;;;;;;18.76;70.18;99599.67;1764154;81;27917;-68
2024/02/26 11:26:25;;;;;;;9.15;6.90;;;;;;;18.78;66.58;99595.97;1765988;81;25377;-69
2024/02/26 11:28:53;;;;;;;8.48;7.40;;;;;;;18.59;65.76;99603.86;1766126;79;25548;-68
2024/02/26 11:31:26;;;;;;;7.67;6.60;;;;;;;18.49;64.91;99604.00;1765971;81;25607;-68
2024/02/26 11:33:49;;;;;;;8.90;6.67;;;;;;;18.68;66.57;99597.48;1765735;81;25602;-69
2024/02/26 11:36:18;;;;;;;6.78;5.62;;;;;;;19.16;63.97;99600.15;1766009;81;27409;-68
2024/02/26 11:38:46;;;;;;;7.57;6.30;;;;;;;19.52;63.68;99598.16;1766186;81;25733;-68
2024/02/26 11:41:12;;;;;;;6.95;5.75;;;;;;;19.54;62.88;99597.17;1766135;79;25554;-69
2024/02/26 11:43:53;;;;;;;6.62;5.92;;;;;;;20.03;64.13;99601.25;1765982;79;25553;-69
2024/02/26 11:46:35;;;;;;;7.70;5.62;;;;;;;20.63;63.32;99605.21;1766105;81;25399;-69